createdAt,value
2023-03-29T00:01:01.762Z,43.03
2023-03-29T00:02:03.751Z,38.13
2023-03-29T00:03:06.745Z,35.67
2023-03-29T00:04:10.211Z,47.42
2023-03-29T00:05:13.231Z,42.67
2023-03-29T00:06:22.386Z,39.72
2023-03-29T00:07:26.916Z,35.35
2023-03-29T00:08:29.268Z,39.05
2023-03-29T00:09:33.125Z,38.45
2023-03-29T00:10:36.948Z,32.72
2023-03-29T00:11:39.739Z,31.17
2023-03-29T00:12:41.745Z,38.03
2023-03-29T00:13:44.734Z,28.65
2023-03-29T00:14:46.593Z,37.22
2023-03-29T00:15:49.379Z,44.28
2023-03-29T00:16:51.682Z,42.33
2023-03-29T00:17:54.670Z,36.63
2023-03-29T00:18:56.846Z,36.50
2023-03-29T00:19:59.929Z,36.53
2023-03-29T00:21:02.181Z,41.13
2023-03-29T00:22:05.992Z,39.92
2023-03-29T00:23:08.837Z,39.10
2023-03-29T00:24:10.755Z,35.38
2023-03-29T00:25:14.163Z,42.58
2023-03-29T00:26:17.387Z,42.25
2023-03-29T00:27:20.603Z,41.92
2023-03-29T00:28:22.920Z,44.55
2023-03-29T00:29:25.752Z,36.67
2023-03-29T00:30:27.653Z,41.83
2023-03-29T00:31:30.442Z,37.35
2023-03-29T00:32:33.141Z,35.03
2023-03-29T00:33:36.793Z,46.22
2023-03-29T00:34:38.855Z,37.70
2023-03-29T00:35:43.904Z,53.38
2023-03-29T00:36:45.682Z,44.63
2023-03-29T00:37:50.784Z,43.72
2023-03-29T00:38:53.004Z,44.10
2023-03-29T00:39:56.004Z,35.55
2023-03-29T00:40:58.268Z,37.08
2023-03-29T00:42:03.275Z,35.55
2023-03-29T00:43:06.216Z,34.78
2023-03-29T00:44:42.060Z,39.45
2023-03-29T00:45:43.957Z,28.13
2023-03-29T00:46:47.007Z,29.42
2023-03-29T00:47:50.692Z,31.05
2023-03-29T00:48:56.623Z,31.35
2023-03-29T00:50:01.646Z,29.58
2023-03-29T00:51:09.898Z,28.00
2023-03-29T00:52:13.246Z,47.13
2023-03-29T00:53:21.385Z,34.63
2023-03-29T00:54:23.253Z,29.40
2023-03-29T00:55:28.865Z,33.85
2023-03-29T00:56:35.214Z,41.45
2023-03-29T00:57:40.420Z,35.00
2023-03-29T00:58:44.701Z,31.30
2023-03-29T00:59:48.206Z,33.15
2023-03-29T01:00:53.597Z,25.10
2023-03-29T01:01:59.674Z,25.27
2023-03-29T01:03:07.075Z,36.60
2023-03-29T01:04:18.074Z,28.45
2023-03-29T01:05:24.374Z,29.38
2023-03-29T01:06:27.259Z,27.48
2023-03-29T01:07:35.205Z,31.83
2023-03-29T01:08:41.657Z,33.53
2023-03-29T01:09:48.627Z,30.65
2023-03-29T01:10:54.994Z,27.40
2023-03-29T01:12:02.600Z,27.00
2023-03-29T01:13:09.534Z,25.02
2023-03-29T01:14:16.607Z,23.10
2023-03-29T01:15:21.061Z,28.70
2023-03-29T01:16:25.713Z,30.13
2023-03-29T01:17:28.016Z,29.73
2023-03-29T01:18:31.529Z,30.00
2023-03-29T01:19:40.684Z,30.17
2023-03-29T01:21:04.838Z,37.25
2023-03-29T01:22:13.536Z,33.78
2023-03-29T01:23:29.498Z,33.05
2023-03-29T01:24:42.901Z,36.92
2023-03-29T01:25:49.258Z,29.90
2023-03-29T01:26:55.363Z,30.95
2023-03-29T01:28:02.737Z,47.63
2023-03-29T01:29:07.978Z,33.28
2023-03-29T01:30:14.445Z,33.28
2023-03-29T01:31:19.519Z,36.40
2023-03-29T01:32:25.102Z,44.38
2023-03-29T01:33:31.556Z,37.35
2023-03-29T01:34:37.532Z,40.28
2023-03-29T01:35:43.722Z,44.05
2023-03-29T01:36:50.510Z,40.22
2023-03-29T01:37:56.991Z,43.33
2023-03-29T01:39:04.933Z,40.80
2023-03-29T01:40:07.755Z,42.92
2023-03-29T01:41:12.064Z,40.10
2023-03-29T01:42:27.024Z,48.03
2023-03-29T01:43:36.186Z,46.15
2023-03-29T01:44:42.690Z,57.75
2023-03-29T01:45:48.436Z,41.60
2023-03-29T01:46:53.663Z,49.40
2023-03-29T01:48:01.095Z,57.20
2023-03-29T01:49:04.905Z,44.55
2023-03-29T01:50:13.978Z,47.42
2023-03-29T01:51:19.095Z,44.55
2023-03-29T01:52:25.958Z,45.67
2023-03-29T01:53:30.880Z,41.83
2023-03-29T01:54:36.221Z,49.80
2023-03-29T01:55:40.708Z,41.55
2023-03-29T01:56:44.921Z,47.90
2023-03-29T01:57:47.477Z,48.95
2023-03-29T01:58:59.539Z,50.13
2023-03-29T02:00:07.215Z,41.78
2023-03-29T02:01:18.845Z,43.10
2023-03-29T02:02:21.646Z,47.55
2023-03-29T02:03:27.185Z,45.75
2023-03-29T02:04:32.519Z,44.33
2023-03-29T02:05:36.770Z,44.72
2023-03-29T02:06:40.674Z,42.92
2023-03-29T02:07:43.601Z,41.35
2023-03-29T02:08:47.273Z,38.22
2023-03-29T02:09:49.693Z,44.05
2023-03-29T02:10:52.818Z,30.70
2023-03-29T02:11:57.272Z,39.45
2023-03-29T02:13:00.128Z,31.98
2023-03-29T02:14:03.592Z,40.42
2023-03-29T02:15:11.707Z,29.63
2023-03-29T02:16:14.386Z,28.88
2023-03-29T02:17:19.641Z,28.48
2023-03-29T02:18:21.785Z,24.77
2023-03-29T02:19:26.181Z,34.35
2023-03-29T02:20:30.701Z,35.65
2023-03-29T02:21:37.232Z,29.42
2023-03-29T02:22:43.008Z,32.65
2023-03-29T02:23:48.882Z,36.20
2023-03-29T02:24:54.732Z,40.03
2023-03-29T02:25:58.734Z,40.50
2023-03-29T02:27:01.318Z,40.90
2023-03-29T02:28:06.952Z,39.75
2023-03-29T02:29:10.496Z,53.28
2023-03-29T02:30:14.555Z,52.58
2023-03-29T02:31:24.107Z,62.63
2023-03-29T02:32:32.727Z,63.92
2023-03-29T02:33:39.153Z,30.95
2023-03-29T02:34:49.326Z,42.67
2023-03-29T02:35:54.646Z,48.33
2023-03-29T02:37:00.203Z,50.25
2023-03-29T02:38:03.966Z,49.22
2023-03-29T02:39:08.112Z,47.38
2023-03-29T02:40:12.890Z,43.38
2023-03-29T02:41:18.092Z,36.50
2023-03-29T02:42:20.855Z,44.45
2023-03-29T02:43:26.195Z,52.83
2023-03-29T02:44:31.794Z,56.47
2023-03-29T02:45:35.069Z,48.67
2023-03-29T02:46:38.588Z,48.80
2023-03-29T02:47:44.153Z,45.45
2023-03-29T02:48:47.917Z,47.10
2023-03-29T02:49:49.856Z,44.65
2023-03-29T02:50:57.438Z,43.63
2023-03-29T02:52:04.671Z,45.90
2023-03-29T02:53:11.481Z,38.92
2023-03-29T02:54:17.908Z,42.47
2023-03-29T02:55:23.424Z,44.22
2023-03-29T02:56:25.400Z,43.20
2023-03-29T02:57:28.695Z,40.50
2023-03-29T02:58:31.636Z,47.60
2023-03-29T02:59:35.830Z,46.80
2023-03-29T03:00:43.075Z,46.28
2023-03-29T03:01:46.166Z,42.75
2023-03-29T03:02:51.813Z,48.25
2023-03-29T03:03:55.113Z,45.88
2023-03-29T03:04:57.569Z,50.03
2023-03-29T03:06:01.544Z,56.10
2023-03-29T03:07:05.149Z,50.40
2023-03-29T03:08:08.786Z,50.85
2023-03-29T03:09:10.608Z,45.30
2023-03-29T03:10:19.120Z,49.60
2023-03-29T03:11:21.242Z,44.47
2023-03-29T03:12:24.295Z,50.45
2023-03-29T03:13:26.286Z,42.58
2023-03-29T03:14:29.475Z,48.92
2023-03-29T03:15:36.349Z,41.72
2023-03-29T03:16:38.632Z,46.00
2023-03-29T03:17:41.674Z,40.97
2023-03-29T03:18:45.963Z,47.10
2023-03-29T03:19:49.522Z,45.97
2023-03-29T03:20:57.966Z,49.05
2023-03-29T03:22:00.819Z,52.35
2023-03-29T03:23:04.309Z,46.72
2023-03-29T03:24:08.311Z,49.28
2023-03-29T03:25:11.272Z,49.42
2023-03-29T03:26:15.294Z,46.38
2023-03-29T03:27:18.739Z,45.55
2023-03-29T03:28:24.155Z,40.72
2023-03-29T03:29:26.450Z,43.95
2023-03-29T03:30:56.201Z,43.30
2023-03-29T03:32:18.518Z,41.47
2023-03-29T03:33:39.581Z,48.85
2023-03-29T03:35:05.748Z,39.92
2023-03-29T03:36:08.329Z,40.42
2023-03-29T03:37:12.995Z,33.33
2023-03-29T03:38:16.626Z,37.95
2023-03-29T03:39:20.621Z,33.33
2023-03-29T03:40:25.562Z,36.78
2023-03-29T03:41:28.487Z,40.53
2023-03-29T03:42:31.459Z,36.92
2023-03-29T03:43:34.289Z,35.28
2023-03-29T03:44:37.941Z,37.03
2023-03-29T03:45:59.087Z,37.35
2023-03-29T03:47:01.125Z,33.05
2023-03-29T03:48:05.778Z,36.53
2023-03-29T03:49:19.199Z,38.70
2023-03-29T03:50:23.036Z,36.15
2023-03-29T03:51:26.467Z,32.50
2023-03-29T03:52:29.316Z,31.40
2023-03-29T03:53:31.196Z,36.22
2023-03-29T03:54:50.196Z,33.22
2023-03-29T03:56:16.269Z,33.08
2023-03-29T03:57:45.516Z,31.45
2023-03-29T03:58:50.135Z,31.90
2023-03-29T03:59:55.227Z,33.40
2023-03-29T04:01:05.051Z,28.73
2023-03-29T04:02:22.043Z,32.13
2023-03-29T04:03:24.534Z,36.72
2023-03-29T04:04:27.542Z,26.92
2023-03-29T04:05:39.230Z,27.60
2023-03-29T04:06:43.773Z,36.20
2023-03-29T04:08:10.187Z,32.70
2023-03-29T04:09:42.591Z,27.38
2023-03-29T04:11:11.522Z,34.08
2023-03-29T04:12:16.528Z,30.65
2023-03-29T04:13:20.190Z,34.38
2023-03-29T04:14:58.060Z,33.65
2023-03-29T04:16:02.188Z,32.47
2023-03-29T04:17:07.035Z,33.92
2023-03-29T04:18:22.077Z,37.35
2023-03-29T04:19:28.419Z,33.20
2023-03-29T04:20:34.758Z,36.33
2023-03-29T04:21:37.229Z,32.72
2023-03-29T04:22:41.156Z,30.50
2023-03-29T04:23:43.164Z,35.22
2023-03-29T04:24:46.170Z,32.05
2023-03-29T04:26:15.696Z,35.60
2023-03-29T04:27:22.376Z,38.63
2023-03-29T04:28:25.467Z,36.72
2023-03-29T04:29:39.737Z,30.50
2023-03-29T04:30:53.684Z,39.45
2023-03-29T04:32:13.276Z,33.10
2023-03-29T04:33:29.268Z,36.70
2023-03-29T04:34:34.758Z,30.83
2023-03-29T04:35:39.903Z,29.70
2023-03-29T04:36:46.683Z,42.38
2023-03-29T04:37:54.944Z,35.63
2023-03-29T04:39:01.293Z,36.17
2023-03-29T04:40:04.755Z,31.00
2023-03-29T04:41:20.052Z,29.50
2023-03-29T04:42:24.434Z,31.35
2023-03-29T04:43:27.424Z,32.08
2023-03-29T04:44:38.002Z,29.48
2023-03-29T04:45:43.196Z,31.08
2023-03-29T04:46:50.740Z,30.35
2023-03-29T04:48:22.513Z,24.98
2023-03-29T04:49:26.128Z,27.73
2023-03-29T04:50:30.829Z,36.17
2023-03-29T04:51:33.192Z,32.90
2023-03-29T04:52:36.300Z,31.63
2023-03-29T04:53:41.108Z,28.58
2023-03-29T04:54:48.691Z,34.75
2023-03-29T04:56:04.073Z,48.38
2023-03-29T04:57:26.950Z,38.80
2023-03-29T04:58:48.417Z,52.42
2023-03-29T04:59:54.813Z,49.30
2023-03-29T05:01:16.722Z,53.03
2023-03-29T05:02:25.327Z,45.25
2023-03-29T05:03:29.687Z,88.72
2023-03-29T05:04:36.495Z,111.00
2023-03-29T05:05:45.577Z,103.85
2023-03-29T05:06:47.467Z,105.00
2023-03-29T05:07:50.756Z,82.40
2023-03-29T05:08:57.952Z,76.82
2023-03-29T05:10:19.739Z,64.07
2023-03-29T05:11:25.201Z,66.95
2023-03-29T05:12:28.505Z,70.68
2023-03-29T05:13:31.884Z,72.05
2023-03-29T05:14:34.815Z,69.43
2023-03-29T05:15:36.717Z,65.03
2023-03-29T05:16:44.319Z,64.28
2023-03-29T05:17:47.723Z,69.80
2023-03-29T05:18:54.774Z,61.40
2023-03-29T05:19:57.104Z,71.35
2023-03-29T05:21:02.237Z,65.72
2023-03-29T05:22:04.433Z,68.10
2023-03-29T05:23:09.644Z,70.47
2023-03-29T05:24:42.102Z,81.03
2023-03-29T05:25:51.521Z,56.45
2023-03-29T05:26:54.537Z,76.35
2023-03-29T05:27:56.392Z,63.17
2023-03-29T05:28:59.344Z,79.78
2023-03-29T05:30:01.748Z,76.00
2023-03-29T05:31:10.206Z,59.45
2023-03-29T05:32:14.998Z,66.65
2023-03-29T05:33:18.504Z,60.38
2023-03-29T05:34:21.762Z,60.28
2023-03-29T05:35:29.206Z,67.25
2023-03-29T05:36:32.163Z,55.10
2023-03-29T05:37:35.327Z,54.97
2023-03-29T05:38:39.735Z,64.68
2023-03-29T05:39:43.790Z,60.30
2023-03-29T05:40:46.763Z,67.45
2023-03-29T05:42:12.328Z,55.25
2023-03-29T05:43:23.737Z,61.30
2023-03-29T05:44:27.932Z,53.67
2023-03-29T05:45:37.014Z,54.05
2023-03-29T05:46:39.881Z,48.53
2023-03-29T05:47:47.976Z,40.72
2023-03-29T05:48:51.014Z,43.92
2023-03-29T05:49:54.928Z,73.95
2023-03-29T05:51:00.140Z,42.03
2023-03-29T05:52:02.448Z,42.22
2023-03-29T05:53:06.803Z,37.42
2023-03-29T05:54:08.730Z,44.88
2023-03-29T05:55:12.008Z,42.97
2023-03-29T05:56:16.626Z,41.80
2023-03-29T05:57:20.359Z,40.38
2023-03-29T05:58:26.359Z,42.92
2023-03-29T05:59:29.644Z,40.55
2023-03-29T06:00:37.123Z,37.20
2023-03-29T06:01:55.999Z,46.03
2023-03-29T06:03:06.486Z,42.53
2023-03-29T06:04:19.423Z,45.25
2023-03-29T06:05:34.805Z,40.20
2023-03-29T06:06:38.758Z,48.20
2023-03-29T06:07:41.301Z,38.78
2023-03-29T06:09:10.521Z,40.67
2023-03-29T06:10:20.236Z,35.15
2023-03-29T06:11:27.791Z,34.63
2023-03-29T06:12:48.073Z,33.95
2023-03-29T06:13:51.782Z,41.08
2023-03-29T06:14:55.013Z,34.40
2023-03-29T06:16:19.887Z,38.17
2023-03-29T06:17:23.722Z,32.67
2023-03-29T06:18:26.766Z,27.58
2023-03-29T06:19:29.613Z,27.77
2023-03-29T06:20:33.488Z,29.45
2023-03-29T06:21:42.399Z,24.27
2023-03-29T06:22:47.942Z,23.95
2023-03-29T06:23:51.107Z,23.17
2023-03-29T06:24:53.483Z,24.98
2023-03-29T06:26:00.742Z,23.65
2023-03-29T06:27:03.763Z,24.13
2023-03-29T06:28:07.396Z,28.55
2023-03-29T06:29:11.319Z,27.27
2023-03-29T06:30:16.292Z,30.00
2023-03-29T06:31:23.602Z,28.40
2023-03-29T06:32:27.932Z,23.58
2023-03-29T06:33:37.119Z,27.02
2023-03-29T06:35:13.733Z,27.00
2023-03-29T06:36:23.884Z,24.63
2023-03-29T06:37:26.820Z,24.58
2023-03-29T06:38:39.794Z,24.20
2023-03-29T06:40:10.069Z,22.25
2023-03-29T06:41:21.773Z,21.92
2023-03-29T06:42:45.953Z,20.25
2023-03-29T06:44:20.788Z,18.00
2023-03-29T06:45:36.112Z,22.23
2023-03-29T06:46:44.828Z,19.60
2023-03-29T06:47:47.703Z,22.70
2023-03-29T06:48:51.545Z,20.98
2023-03-29T06:49:54.766Z,24.23
2023-03-29T06:51:08.314Z,20.75
2023-03-29T06:52:12.210Z,22.13
2023-03-29T06:53:15.918Z,18.83
2023-03-29T06:54:21.558Z,18.77
2023-03-29T06:55:35.972Z,18.85
2023-03-29T06:56:57.792Z,17.35
2023-03-29T06:58:02.852Z,20.08
2023-03-29T06:59:06.293Z,31.98
2023-03-29T07:00:19.319Z,71.40
2023-03-29T07:01:40.636Z,54.50
2023-03-29T07:02:50.990Z,20.77
2023-03-29T07:03:59.612Z,21.42
2023-03-29T07:05:11.958Z,37.47
2023-03-29T07:06:20.421Z,18.75
2023-03-29T07:07:27.580Z,19.52
2023-03-29T07:08:44.973Z,15.82
2023-03-29T07:10:07.421Z,15.73
2023-03-29T07:11:29.222Z,20.17
2023-03-29T07:12:33.100Z,18.08
2023-03-29T07:13:37.397Z,16.17
2023-03-29T07:14:45.106Z,15.75
2023-03-29T07:15:48.206Z,19.27
2023-03-29T07:16:51.925Z,17.98
2023-03-29T07:17:59.787Z,17.23
2023-03-29T07:19:03.794Z,14.95
2023-03-29T07:20:27.097Z,14.00
2023-03-29T07:21:40.154Z,14.23
2023-03-29T07:22:45.101Z,12.02
2023-03-29T07:23:47.864Z,18.95
2023-03-29T07:24:49.854Z,15.43
2023-03-29T07:25:52.788Z,16.25
2023-03-29T07:27:03.321Z,12.73
2023-03-29T07:28:07.984Z,11.20
2023-03-29T07:29:11.744Z,12.50
2023-03-29T07:30:16.915Z,12.43
2023-03-29T07:31:19.925Z,12.57
2023-03-29T07:32:30.602Z,11.40
2023-03-29T07:33:56.348Z,10.38
2023-03-29T07:35:00.652Z,9.48
2023-03-29T07:36:10.040Z,9.55
2023-03-29T07:37:12.007Z,13.15
2023-03-29T07:38:21.803Z,21.83
2023-03-29T07:39:31.513Z,10.15
2023-03-29T07:41:08.880Z,9.80
2023-03-29T07:42:20.873Z,11.82
2023-03-29T07:43:24.385Z,10.13
2023-03-29T07:44:29.499Z,10.38
2023-03-29T07:45:33.447Z,10.70
2023-03-29T07:46:40.116Z,13.48
2023-03-29T07:47:43.308Z,9.88
2023-03-29T07:48:46.276Z,9.20
2023-03-29T07:49:49.625Z,10.20
2023-03-29T07:50:52.627Z,11.45
2023-03-29T07:52:01.666Z,10.90
2023-03-29T07:53:04.539Z,17.25
2023-03-29T07:54:14.745Z,11.02
2023-03-29T07:55:30.961Z,8.27
2023-03-29T07:56:51.105Z,10.27
2023-03-29T07:58:04.236Z,11.30
2023-03-29T07:59:09.267Z,15.18
2023-03-29T08:00:16.150Z,8.90
2023-03-29T08:01:29.921Z,10.07
2023-03-29T08:03:03.761Z,8.23
2023-03-29T08:04:08.736Z,10.35
2023-03-29T08:05:40.685Z,10.35
2023-03-29T08:06:50.562Z,7.10
2023-03-29T08:07:54.468Z,9.63
2023-03-29T08:09:21.521Z,10.40
2023-03-29T08:10:26.585Z,10.57
2023-03-29T08:11:35.383Z,13.80
2023-03-29T08:12:40.840Z,11.05
2023-03-29T08:13:44.279Z,11.57
2023-03-29T08:14:58.968Z,8.18
2023-03-29T08:16:07.538Z,9.60
2023-03-29T08:17:14.613Z,10.48
2023-03-29T08:18:22.949Z,9.52
2023-03-29T08:19:24.971Z,9.32
2023-03-29T08:20:46.729Z,10.40
2023-03-29T08:21:48.605Z,10.13
2023-03-29T08:22:53.714Z,11.60
2023-03-29T08:24:06.869Z,8.60
2023-03-29T08:25:24.786Z,9.35
2023-03-29T08:26:30.628Z,8.65
2023-03-29T08:27:35.106Z,8.77
2023-03-29T08:28:38.136Z,10.70
2023-03-29T08:29:40.103Z,9.00
2023-03-29T08:30:43.158Z,8.30
2023-03-29T08:31:45.223Z,7.75
2023-03-29T08:32:50.965Z,11.85
2023-03-29T08:35:52.062Z,10.95
2023-03-29T08:36:59.904Z,15.88
2023-03-29T08:38:12.563Z,6.25
2023-03-29T08:39:16.195Z,11.60
2023-03-29T08:40:26.309Z,9.27
2023-03-29T08:41:58.308Z,8.13
2023-03-29T08:43:23.922Z,7.03
2023-03-29T08:44:56.285Z,8.88
2023-03-29T08:46:07.442Z,6.80
2023-03-29T08:47:18.993Z,6.05
2023-03-29T08:48:26.290Z,7.57
2023-03-29T08:49:29.378Z,10.20
2023-03-29T08:50:38.529Z,7.35
2023-03-29T08:51:44.506Z,26.83
2023-03-29T08:52:49.354Z,7.40
2023-03-29T08:54:29.196Z,6.95
2023-03-29T08:56:07.708Z,5.78
2023-03-29T08:57:32.100Z,22.73
2023-03-29T08:58:43.429Z,12.73
2023-03-29T08:59:46.745Z,7.55
2023-03-29T09:00:53.063Z,12.85
2023-03-29T14:40:26.092Z,15.65
2023-03-29T14:41:31.632Z,4.95
2023-03-29T14:42:35.801Z,5.00
2023-03-29T14:43:39.255Z,3.15
2023-03-29T14:44:43.335Z,2.75
2023-03-29T14:45:49.467Z,6.32
2023-03-29T14:46:51.771Z,6.93
2023-03-29T14:47:54.930Z,10.25
2023-03-29T14:48:58.152Z,6.30
2023-03-29T14:50:01.801Z,12.27
2023-03-29T14:51:24.345Z,5.45
2023-03-29T14:52:27.940Z,4.25
2023-03-29T14:53:32.275Z,5.85
2023-03-29T14:54:36.137Z,5.60
2023-03-29T14:55:40.785Z,10.23
2023-03-29T14:56:58.943Z,6.47
2023-03-29T14:58:02.693Z,5.63
2023-03-29T14:59:07.151Z,11.73
2023-03-29T15:00:25.956Z,9.70
2023-03-29T15:01:29.046Z,11.95
2023-03-29T15:02:32.507Z,4.25
2023-03-29T15:03:44.441Z,10.55
2023-03-29T15:05:26.275Z,4.50
2023-03-29T15:06:29.746Z,6.32
2023-03-29T15:07:33.093Z,3.35
2023-03-29T15:08:38.124Z,4.68
2023-03-29T15:09:41.160Z,9.57
2023-03-29T15:10:45.614Z,4.35
2023-03-29T15:11:52.683Z,6.40
2023-03-29T15:12:58.647Z,8.48
2023-03-29T15:14:17.056Z,6.15
2023-03-29T15:15:20.731Z,5.80
2023-03-29T15:16:24.432Z,5.40
2023-03-29T15:17:43.111Z,7.45
2023-03-29T15:18:56.162Z,4.53
2023-03-29T15:20:01.472Z,4.18
2023-03-29T15:21:06.760Z,17.58
2023-03-29T15:22:11.328Z,5.05
2023-03-29T15:23:23.688Z,5.22
2023-03-29T15:24:33.982Z,4.07
2023-03-29T15:25:38.946Z,3.75
2023-03-29T15:26:59.411Z,3.90
2023-03-29T15:28:02.451Z,9.85
2023-03-29T15:29:09.268Z,6.38
2023-03-29T15:30:15.006Z,18.50
2023-03-29T15:31:20.741Z,6.63
2023-03-29T15:32:25.701Z,5.82
2023-03-29T15:33:34.685Z,5.80
2023-03-29T15:34:38.303Z,7.50
2023-03-29T15:35:40.766Z,4.53
2023-03-29T15:36:47.730Z,4.25
2023-03-29T15:37:51.206Z,5.70
2023-03-29T15:38:54.691Z,5.03
2023-03-29T15:39:58.464Z,3.03
2023-03-29T15:41:02.623Z,5.55
2023-03-29T15:42:07.876Z,13.40
2023-03-29T15:43:12.703Z,19.30
2023-03-29T15:44:28.768Z,7.00
2023-03-29T15:45:32.074Z,5.20
2023-03-29T15:46:36.508Z,6.15
2023-03-29T15:47:38.730Z,5.15
2023-03-29T15:48:42.022Z,5.88
2023-03-29T15:49:44.117Z,4.65
2023-03-29T15:50:47.715Z,4.85
2023-03-29T15:51:54.027Z,10.02
2023-03-29T15:53:08.633Z,4.25
2023-03-29T15:54:15.732Z,3.45
2023-03-29T15:55:19.297Z,3.55
2023-03-29T15:56:22.939Z,4.70
2023-03-29T15:57:26.709Z,8.25
2023-03-29T15:58:31.557Z,5.05
2023-03-29T15:59:36.469Z,8.10
2023-03-29T16:00:40.756Z,7.00
2023-03-29T16:01:43.958Z,6.10
2023-03-29T16:02:49.561Z,6.13
2023-03-29T16:03:59.331Z,4.53
2023-03-29T16:05:06.382Z,6.13
2023-03-29T16:06:10.940Z,5.30
2023-03-29T16:07:15.482Z,4.95
2023-03-29T16:08:18.513Z,7.90
2023-03-29T16:09:22.031Z,6.65
2023-03-29T16:10:25.089Z,5.53
2023-03-29T16:11:28.409Z,6.30
2023-03-29T16:12:35.727Z,5.03
2023-03-29T16:13:41.085Z,6.82
2023-03-29T16:14:44.285Z,6.40
2023-03-29T16:15:50.026Z,4.53
2023-03-29T16:16:52.627Z,3.88
2023-03-29T16:17:56.482Z,5.60
2023-03-29T16:18:58.619Z,7.43
2023-03-29T16:20:01.857Z,16.20
2023-03-29T16:21:04.754Z,5.13
2023-03-29T16:22:08.731Z,4.40
2023-03-29T16:23:11.536Z,8.35
2023-03-29T16:24:16.275Z,5.72
2023-03-29T16:25:22.709Z,5.45
2023-03-29T16:26:26.725Z,5.70
2023-03-29T16:27:29.857Z,6.38
2023-03-29T16:28:36.946Z,6.53
2023-03-29T16:29:42.006Z,8.27
2023-03-29T16:30:43.996Z,2.92
2023-03-29T16:31:49.123Z,4.72
2023-03-29T16:32:51.449Z,5.35
2023-03-29T16:33:54.724Z,5.10
2023-03-29T16:34:58.455Z,6.28
2023-03-29T16:36:01.716Z,10.27
2023-03-29T16:37:05.012Z,8.55
2023-03-29T16:38:09.240Z,28.73
2023-03-29T16:39:12.072Z,12.40
2023-03-29T16:40:16.319Z,5.60
2023-03-29T16:41:19.422Z,5.80
2023-03-29T16:42:22.507Z,7.10
2023-03-29T16:43:25.706Z,7.32
2023-03-29T16:44:29.395Z,6.65
2023-03-29T16:45:34.048Z,5.78
2023-03-29T16:46:36.388Z,6.10
2023-03-29T16:47:43.695Z,11.98
2023-03-29T16:48:46.976Z,5.88
2023-03-29T16:49:49.347Z,6.32
2023-03-29T16:50:52.913Z,5.22
2023-03-29T16:51:56.063Z,6.00
2023-03-29T16:52:59.109Z,5.35
2023-03-29T16:54:02.447Z,9.27
2023-03-29T16:55:10.675Z,6.40
2023-03-29T16:56:16.573Z,15.07
2023-03-29T16:57:20.245Z,25.00
2023-03-29T16:58:24.227Z,15.68
2023-03-29T16:59:27.295Z,6.90
2023-03-29T17:00:33.213Z,5.75
2023-03-29T17:01:38.150Z,10.50
2023-03-29T17:02:41.348Z,6.45
2023-03-29T17:03:44.593Z,6.45
2023-03-29T17:04:46.933Z,5.55
2023-03-29T17:05:50.731Z,8.23
2023-03-29T17:06:53.502Z,7.70
2023-03-29T17:07:56.791Z,4.55
2023-03-29T17:08:59.181Z,6.28
2023-03-29T17:10:04.549Z,5.88
2023-03-29T17:11:08.052Z,8.05
2023-03-29T17:12:10.593Z,6.53
2023-03-29T17:13:14.884Z,10.38
2023-03-29T17:14:17.056Z,8.77
2023-03-29T17:15:20.127Z,7.50
2023-03-29T17:16:23.697Z,9.02
2023-03-29T17:17:27.046Z,11.55
2023-03-29T17:18:28.976Z,9.55
2023-03-29T17:19:32.297Z,8.68
2023-03-29T17:20:34.341Z,7.53
2023-03-29T17:21:37.277Z,6.28
2023-03-29T17:22:39.540Z,11.18
2023-03-29T17:23:42.539Z,19.60
2023-03-29T17:24:45.519Z,10.50
2023-03-29T17:25:48.920Z,13.43
2023-03-29T17:26:51.893Z,12.65
2023-03-29T17:27:55.998Z,17.67
2023-03-29T17:28:59.180Z,10.75
2023-03-29T17:30:01.286Z,19.58
2023-03-29T17:31:07.083Z,22.23
2023-03-29T17:32:11.562Z,21.90
2023-03-29T17:33:13.688Z,21.40
2023-03-29T17:34:17.281Z,46.72
2023-03-29T17:35:19.359Z,24.88
2023-03-29T17:36:24.259Z,35.13
2023-03-29T17:37:27.668Z,27.48
2023-03-29T17:38:34.454Z,30.33
2023-03-29T17:39:37.809Z,29.77
2023-03-29T17:40:39.969Z,32.85
2023-03-29T17:41:43.238Z,33.15
2023-03-29T17:42:46.453Z,32.50
2023-03-29T17:43:50.994Z,33.40
2023-03-29T17:44:54.614Z,30.77
2023-03-29T17:45:58.062Z,42.28
2023-03-29T17:47:01.206Z,31.63
2023-03-29T17:48:06.547Z,31.35
2023-03-29T17:49:12.209Z,31.75
2023-03-29T17:50:15.346Z,38.22
2023-03-29T17:51:19.738Z,42.97
2023-03-29T17:52:22.836Z,30.27
2023-03-29T17:53:25.302Z,11.88
2023-03-29T17:54:28.612Z,16.60
2023-03-29T17:55:31.494Z,8.60
2023-03-29T17:56:35.267Z,11.57
2023-03-29T17:57:38.830Z,11.32
2023-03-29T17:58:41.851Z,8.88
2023-03-29T17:59:48.005Z,13.90
2023-03-29T18:00:53.206Z,16.88
2023-03-29T18:01:55.365Z,23.05
2023-03-29T18:03:08.884Z,30.35
2023-03-29T18:04:14.405Z,51.40
2023-03-29T18:05:17.964Z,53.72
2023-03-29T18:06:21.084Z,80.75
2023-03-29T18:07:24.373Z,76.75
2023-03-29T18:08:36.864Z,101.70
2023-03-29T18:09:43.621Z,85.63
2023-03-29T18:10:48.228Z,87.35
2023-03-29T18:11:51.500Z,85.55
2023-03-29T18:12:54.170Z,68.78
2023-03-29T18:14:00.018Z,100.50
2023-03-29T18:15:02.300Z,98.45
2023-03-29T18:16:07.422Z,94.10
2023-03-29T18:17:10.015Z,69.43
2023-03-29T18:18:15.381Z,103.80
2023-03-29T18:19:18.901Z,86.68
2023-03-29T18:20:24.359Z,127.72
2023-03-29T18:21:29.303Z,126.38
2023-03-29T18:22:34.257Z,133.25
2023-03-29T18:23:39.855Z,137.60
2023-03-29T18:24:43.252Z,121.25
2023-03-29T18:25:45.831Z,139.68
2023-03-29T18:26:50.273Z,177.75
2023-03-29T18:27:53.155Z,178.18
2023-03-29T18:28:56.507Z,186.07
2023-03-29T18:30:02.277Z,102.82
2023-03-29T18:31:05.973Z,156.98
2023-03-29T18:32:09.375Z,182.20
2023-03-29T18:33:15.022Z,118.88
2023-03-29T18:34:17.587Z,169.77
2023-03-29T18:35:20.645Z,166.95
2023-03-29T18:36:25.266Z,164.00
2023-03-29T18:37:28.318Z,132.00
2023-03-29T18:38:32.734Z,105.75
2023-03-29T18:39:35.959Z,79.22
2023-03-29T18:40:39.121Z,85.68
2023-03-29T18:41:42.162Z,85.43
2023-03-29T18:42:46.120Z,71.13
2023-03-29T18:43:48.440Z,63.20
2023-03-29T18:44:51.888Z,62.53
2023-03-29T18:45:57.438Z,65.63
2023-03-29T18:47:27.356Z,60.33
2023-03-29T18:48:33.685Z,63.95
2023-03-29T18:49:37.687Z,64.60
2023-03-29T18:50:43.233Z,56.42
2023-03-29T18:51:47.670Z,55.50
2023-03-29T18:52:50.845Z,53.78
2023-03-29T18:53:53.407Z,52.28
2023-03-29T18:54:56.885Z,52.88
2023-03-29T18:56:01.077Z,56.13
2023-03-29T18:57:05.057Z,54.70
2023-03-29T18:58:11.934Z,53.30
2023-03-29T18:59:17.184Z,56.80
2023-03-29T19:00:20.154Z,55.17
2023-03-29T19:03:16.158Z,64.22
2023-03-29T19:04:20.231Z,65.65
2023-03-29T19:05:24.182Z,69.63
2023-03-29T19:06:26.830Z,73.35
2023-03-29T19:07:30.493Z,60.08
2023-03-29T19:08:34.797Z,55.65
2023-03-29T19:09:37.090Z,55.90
2023-03-29T19:10:42.272Z,57.60
2023-03-29T19:11:47.830Z,53.03
2023-03-29T19:12:51.200Z,63.03
2023-03-29T19:13:56.439Z,70.38
2023-03-29T19:15:00.410Z,79.07
2023-03-29T19:16:04.756Z,95.57
2023-03-29T19:17:08.625Z,96.55
2023-03-29T19:18:12.031Z,105.97
2023-03-29T19:19:15.240Z,107.10
2023-03-29T19:20:21.346Z,114.70
2023-03-29T19:21:26.020Z,125.18
2023-03-29T19:22:29.245Z,133.75
2023-03-29T19:23:33.865Z,139.65
2023-03-29T19:24:37.283Z,132.90
2023-03-29T19:25:41.549Z,122.80
2023-03-29T19:26:47.819Z,136.95
2023-03-29T19:27:51.694Z,121.25
2023-03-29T19:28:54.519Z,121.20
2023-03-29T19:29:58.289Z,108.35
2023-03-29T19:31:03.405Z,112.63
2023-03-29T19:32:09.691Z,106.80
2023-03-29T19:33:14.171Z,107.75
2023-03-29T19:34:19.786Z,89.68
2023-03-29T19:35:24.784Z,65.10
2023-03-29T19:36:31.216Z,72.22
2023-03-29T19:37:34.917Z,68.95
2023-03-29T19:38:37.452Z,77.57
2023-03-29T19:39:41.542Z,94.18
2023-03-29T19:40:44.831Z,88.90
2023-03-29T19:41:48.173Z,79.15
2023-03-29T19:42:52.049Z,69.90
2023-03-29T19:43:55.388Z,68.68
2023-03-29T19:44:57.655Z,62.03
2023-03-29T19:46:07.125Z,69.95
2023-03-29T19:47:11.998Z,62.83
2023-03-29T19:48:21.760Z,62.75
2023-03-29T19:49:26.168Z,66.85
2023-03-29T19:50:31.686Z,70.25
2023-03-29T19:51:35.517Z,72.32
2023-03-29T19:52:39.391Z,69.85
2023-03-29T19:53:42.445Z,72.38
2023-03-29T19:54:45.940Z,73.38
2023-03-29T19:55:49.500Z,75.88
2023-03-29T19:56:53.281Z,82.85
2023-03-29T19:57:56.997Z,81.35
2023-03-29T19:59:00.785Z,80.85
2023-03-29T20:00:07.988Z,78.95
2023-03-29T20:01:20.614Z,75.72
2023-03-29T20:02:24.151Z,88.32
2023-03-29T20:03:28.434Z,67.30
2023-03-29T20:04:33.294Z,66.88
2023-03-29T20:05:37.225Z,73.80